This is the latest recevied weather packets stored in our database for station/object YO2LDK-13. If no packets are shown the sender has not sent any weather packets the latest 10 day(s).
| Time | Temp. | Humidity | Pressure | Rain* | Wind** | Luminosity | Snow |
|---|---|---|---|---|---|---|---|
| 1777511419 | 8.33° C | 40% | 1012.2 hPa | 0 mm | - | 0 W/m² | - |
| 1777511121 | 8.33° C | 39% | 1012.2 hPa | 0 mm | - | 0 W/m² | - |
| 1777510820 | 8.33° C | 39% | 1012.2 hPa | 0 mm | - | 0 W/m² | - |
| 1777510521 | 8.33° C | 39% | 1012.2 hPa | 0 mm | - | 0 W/m² | - |
| 1777509920 | 8.33° C | 39% | 1012.2 hPa | 0 mm | - | 0 W/m² | - |
| 1777509320 | 8.33° C | 39% | 1012.2 hPa | 0 mm | - | 0 W/m² | - |
| 1777508420 | 8.33° C | 38% | 1012.2 hPa | 0 mm | - | 0 W/m² | - |
| 1777508119 | 8.33° C | 37% | 1012.2 hPa | 0 mm | - | 0 W/m² | - |
| 1777507820 | 8.33° C | 38% | 1012.2 hPa | 0 mm | - | 0 W/m² | - |
| 1777507520 | 8.89° C | 37% | 1012.2 hPa | 0 mm | - | 0 W/m² | - |
| 1777507220 | 8.89° C | 37% | 1012.2 hPa | 0 mm | - | 0 W/m² | - |
| 1777505120 | 8.89° C | 39% | 1012.2 hPa | 0 mm | - | 0 W/m² | - |
| 1777503620 | 9.44° C | 39% | 1012.2 hPa | 0 mm | - | 0 W/m² | - |
| 1777502121 | 9.44° C | 39% | 1011.9 hPa | 0 mm | - | 0 W/m² | - |
| 1777500320 | 10° C | 39% | 1011.9 hPa | 0 mm | - | 0 W/m² | - |
| 1777496420 | 10.56° C | 39% | 1011.2 hPa | 0 mm | - | 0 W/m² | - |
| 1777494020 | 11.67° C | 37% | 1010.8 hPa | 0 mm | - | 0 W/m² | - |
| 1777492220 | 11.67° C | 37% | 1010.5 hPa | 0 mm | - | 0 W/m² | - |
| 1777491620 | 12.22° C | 36% | 1010.5 hPa | 0 mm | - | 0 W/m² | - |
| 1777491320 | 12.22° C | 36% | 1010.5 hPa | 0 mm | - | 0 W/m² | - |
| 1777489820 | 12.78° C | 34% | 1010.5 hPa | 0 mm | - | 0 W/m² | - |
| 1777486520 | 13.33° C | 31% | 1009.8 hPa | 0 mm | - | 0 W/m² | - |
| 1777485920 | 13.33° C | 31% | 1009.5 hPa | 0 mm | - | 0 W/m² | - |
| 1777485320 | 13.33° C | 32% | 1009.8 hPa | 0 mm | - | 0 W/m² | - |
| 1777482920 | 14.44° C | 31% | 1009.5 hPa | 0 mm | - | 6 W/m² | - |
* Rain latest hour (hover to see other rain measurements)
** Current wind speed in m/s (hover to see current wind gust speed)